createdAt,value
2023-01-03T00:01:19.872Z,50.77
2023-01-03T00:03:47.504Z,50.72
2023-01-03T00:06:26.659Z,50.79
2023-01-03T00:08:56.209Z,50.88
2023-01-03T00:11:46.481Z,50.79
2023-01-03T00:14:19.152Z,51.13
2023-01-03T00:16:51.373Z,50.96
2023-01-03T00:19:19.236Z,51.00
2023-01-03T00:21:46.175Z,51.07
2023-01-03T00:24:13.258Z,51.14
2023-01-03T00:26:41.347Z,51.21
2023-01-03T00:29:09.612Z,51.33
2023-01-03T00:31:37.342Z,51.47
2023-01-03T00:34:04.819Z,51.40
2023-01-03T00:36:32.226Z,51.52
2023-01-03T00:38:59.370Z,51.37
2023-01-03T00:41:26.463Z,51.43
2023-01-03T00:43:53.771Z,51.58
2023-01-03T00:46:21.625Z,51.70
2023-01-03T00:48:48.631Z,51.66
2023-01-03T00:51:25.864Z,51.72
2023-01-03T00:53:55.453Z,51.80
2023-01-03T00:56:24.979Z,51.68
2023-01-03T00:58:52.436Z,51.96
2023-01-03T01:01:23.770Z,51.92
2023-01-03T01:03:53.702Z,52.00
2023-01-03T01:06:22.490Z,52.12
2023-01-03T01:08:51.654Z,51.95
2023-01-03T01:11:18.943Z,51.97
2023-01-03T01:13:47.101Z,52.37
2023-01-03T01:16:17.796Z,52.22
2023-01-03T01:18:47.360Z,52.44
2023-01-03T01:21:20.566Z,52.40
2023-01-03T01:23:48.113Z,52.42
2023-01-03T01:26:18.515Z,52.20
2023-01-03T01:28:46.157Z,52.51
2023-01-03T01:31:17.464Z,52.42
2023-01-03T01:33:44.989Z,52.34
2023-01-03T01:36:20.923Z,52.45
2023-01-03T01:38:48.977Z,52.41
2023-01-03T01:41:37.689Z,52.39
2023-01-03T01:44:23.471Z,52.72
2023-01-03T01:46:51.591Z,52.64
2023-01-03T01:49:23.741Z,52.54
2023-01-03T01:51:51.101Z,52.80
2023-01-03T01:54:19.666Z,52.78
2023-01-03T01:56:49.440Z,52.90
2023-01-03T01:59:16.633Z,52.58
2023-01-03T02:01:46.441Z,52.81
2023-01-03T02:04:29.310Z,52.91
2023-01-03T02:06:56.949Z,52.94
2023-01-03T02:09:24.313Z,52.87
2023-01-03T02:12:21.677Z,52.75
2023-01-03T02:14:51.371Z,52.87
2023-01-03T02:17:20.863Z,53.08
2023-01-03T02:19:56.595Z,52.92
2023-01-03T02:22:35.370Z,53.01
2023-01-03T02:25:17.516Z,53.15
2023-01-03T02:28:16.398Z,52.99
2023-01-03T02:30:48.920Z,53.05
2023-01-03T02:33:28.145Z,53.09
2023-01-03T02:36:06.013Z,53.16
2023-01-03T02:39:04.220Z,52.94
2023-01-03T02:41:37.976Z,52.94
2023-01-03T02:44:19.056Z,53.23
2023-01-03T02:47:12.432Z,53.19
2023-01-03T02:49:41.841Z,53.21
2023-01-03T02:52:13.873Z,53.15
2023-01-03T02:54:51.460Z,53.13
2023-01-03T02:57:23.116Z,53.02
2023-01-03T03:00:08.478Z,53.11
2023-01-03T03:02:37.810Z,53.03
2023-01-03T03:05:12.750Z,53.18
2023-01-03T03:07:41.203Z,53.23
2023-01-03T03:10:30.158Z,52.94
2023-01-03T03:13:13.757Z,53.05
2023-01-03T03:15:59.337Z,53.09
2023-01-03T03:18:39.100Z,53.20
2023-01-03T03:21:28.424Z,53.37
2023-01-03T03:24:26.100Z,53.46
2023-01-03T03:26:56.367Z,53.28
2023-01-03T03:29:23.301Z,53.41
2023-01-03T03:31:52.035Z,53.32
2023-01-03T03:34:27.930Z,53.32
2023-01-03T03:37:27.352Z,53.42
2023-01-03T03:40:14.002Z,53.70
2023-01-03T03:42:59.318Z,53.44
2023-01-03T03:45:29.151Z,53.56
2023-01-03T03:48:01.979Z,53.37
2023-01-03T03:50:38.277Z,53.57
2023-01-03T03:53:08.689Z,53.38
2023-01-03T03:55:44.114Z,53.33
2023-01-03T03:58:49.759Z,53.24
2023-01-03T04:01:20.588Z,53.38
2023-01-03T04:03:50.415Z,53.45
2023-01-03T04:06:28.758Z,53.21
2023-01-03T04:08:55.603Z,53.44
2023-01-03T04:11:22.607Z,53.37
2023-01-03T04:13:49.440Z,53.47
2023-01-03T04:16:16.398Z,53.47
2023-01-03T04:18:43.402Z,53.57
2023-01-03T04:21:13.245Z,53.69
2023-01-03T04:23:44.040Z,53.37
2023-01-03T04:26:10.877Z,53.60
2023-01-03T04:28:37.649Z,53.35
2023-01-03T04:31:04.554Z,53.59
2023-01-03T04:33:31.420Z,53.49
2023-01-03T04:35:58.199Z,53.46
2023-01-03T04:38:25.051Z,53.25
2023-01-03T04:40:51.905Z,53.54
2023-01-03T04:43:37.711Z,53.38
2023-01-03T04:46:04.749Z,53.55
2023-01-03T04:48:31.611Z,53.54
2023-01-03T04:51:00.197Z,53.58
2023-01-03T04:53:27.999Z,53.66
2023-01-03T04:55:57.087Z,53.66
2023-01-03T04:58:24.119Z,53.57
2023-01-03T05:00:51.523Z,53.35
2023-01-03T05:03:23.995Z,53.39
2023-01-03T05:05:52.703Z,53.54
2023-01-03T05:08:19.665Z,53.64
2023-01-03T05:10:46.519Z,53.54
2023-01-03T05:13:13.333Z,53.40
2023-01-03T05:15:40.422Z,53.51
2023-01-03T05:18:07.242Z,53.41
2023-01-03T05:20:56.020Z,53.33
2023-01-03T05:23:42.393Z,53.59
2023-01-03T05:26:15.822Z,53.53
2023-01-03T05:28:45.311Z,53.35
2023-01-03T05:31:12.726Z,53.69
2023-01-03T05:33:41.026Z,53.55
2023-01-03T05:36:09.406Z,53.55
2023-01-03T05:38:37.429Z,53.42
2023-01-03T05:41:05.570Z,53.75
2023-01-03T05:43:32.550Z,53.42
2023-01-03T05:45:59.472Z,53.65
2023-01-03T05:48:27.264Z,53.44
2023-01-03T05:50:57.800Z,53.50
2023-01-03T05:53:25.737Z,53.55
2023-01-03T05:55:52.588Z,53.61
2023-01-03T05:58:19.738Z,53.64
2023-01-03T06:00:46.590Z,53.68
2023-01-03T06:03:13.467Z,53.68
2023-01-03T06:05:46.105Z,53.45
2023-01-03T06:08:16.637Z,53.54
2023-01-03T06:10:43.484Z,53.59
2023-01-03T06:13:10.412Z,53.56
2023-01-03T06:15:37.262Z,53.50
2023-01-03T06:18:04.292Z,53.63
2023-01-03T06:20:31.219Z,53.57
2023-01-03T06:22:58.184Z,53.49
2023-01-03T06:25:25.671Z,53.49
2023-01-03T06:27:52.517Z,53.71
2023-01-03T06:30:19.475Z,53.37
2023-01-03T06:32:46.322Z,53.35
2023-01-03T06:35:13.646Z,52.89
2023-01-03T06:37:40.503Z,53.00
2023-01-03T06:40:08.000Z,52.76
2023-01-03T06:42:43.393Z,53.08
2023-01-03T06:45:32.070Z,52.99
2023-01-03T06:48:21.754Z,52.76
2023-01-03T06:51:07.405Z,52.66
2023-01-03T06:53:37.632Z,52.73
2023-01-03T06:56:05.673Z,52.75
2023-01-03T06:58:32.628Z,53.06
2023-01-03T07:01:04.185Z,53.42
2023-01-03T07:03:32.348Z,53.46
2023-01-03T07:05:59.540Z,53.79
2023-01-03T07:08:26.441Z,54.02
2023-01-03T07:10:54.293Z,53.87
2023-01-03T07:13:39.358Z,53.37
2023-01-03T07:16:06.346Z,54.01
2023-01-03T07:18:34.204Z,53.83
2023-01-03T07:21:01.070Z,53.87
2023-01-03T07:23:27.863Z,53.77
2023-01-03T07:25:55.886Z,53.96
2023-01-03T07:28:22.714Z,53.69
2023-01-03T07:30:49.752Z,53.74
2023-01-03T07:33:18.351Z,53.96
2023-01-03T07:35:45.933Z,53.94
2023-01-03T07:38:13.821Z,53.89
2023-01-03T07:40:40.954Z,53.96
2023-01-03T07:43:33.804Z,53.54
2023-01-03T07:46:00.709Z,53.67
2023-01-03T07:48:27.639Z,53.54
2023-01-03T07:50:58.161Z,53.92
2023-01-03T07:53:25.777Z,53.46
2023-01-03T07:55:52.857Z,53.62
2023-01-03T07:58:19.743Z,53.39
2023-01-03T08:00:46.635Z,53.59
2023-01-03T08:03:14.661Z,53.16
2023-01-03T08:05:41.529Z,53.47
2023-01-03T08:08:09.391Z,53.47
2023-01-03T08:10:54.851Z,53.45
2023-01-03T08:13:22.016Z,53.49
2023-01-03T08:15:52.044Z,53.39
2023-01-03T08:18:27.143Z,53.15
2023-01-03T08:20:55.798Z,53.20
2023-01-03T08:23:23.717Z,53.19
2023-01-03T08:25:50.932Z,53.34
2023-01-03T08:28:18.213Z,53.51
2023-01-03T08:30:48.805Z,53.42
2023-01-03T08:33:18.689Z,53.19
2023-01-03T08:36:07.283Z,53.03
2023-01-03T08:38:45.837Z,52.97
2023-01-03T08:41:16.757Z,52.83
2023-01-03T08:43:46.848Z,52.75
2023-01-03T08:46:16.377Z,52.59
2023-01-03T08:48:44.087Z,52.71
2023-01-03T08:51:11.151Z,52.68
2023-01-03T08:53:38.130Z,52.67
2023-01-03T08:56:05.273Z,52.41
2023-01-03T08:58:32.468Z,52.37
2023-01-03T09:01:04.153Z,52.63
2023-01-03T09:03:31.181Z,52.40
2023-01-03T09:06:03.213Z,52.20
2023-01-03T09:08:31.451Z,51.95
2023-01-03T09:10:58.958Z,51.80
2023-01-03T09:13:25.851Z,52.24
2023-01-03T09:16:01.272Z,51.91
2023-01-03T09:18:28.135Z,52.27
2023-01-03T09:20:55.083Z,52.34
2023-01-03T09:23:21.968Z,52.48
2023-01-03T09:25:48.825Z,52.49
2023-01-03T09:28:15.709Z,52.43
2023-01-03T09:30:42.553Z,52.50
2023-01-03T09:33:10.953Z,52.45
2023-01-03T09:35:38.361Z,52.45
2023-01-03T09:38:06.115Z,52.34
2023-01-03T09:40:38.474Z,52.97
2023-01-03T09:43:19.816Z,53.05
2023-01-03T09:45:55.344Z,52.93
2023-01-03T09:48:36.230Z,52.78
2023-01-03T09:51:19.743Z,52.64
2023-01-03T09:54:08.147Z,52.97
2023-01-03T09:56:53.979Z,52.80
2023-01-03T09:59:39.434Z,52.38
2023-01-03T10:02:49.387Z,52.24
2023-01-03T10:05:36.725Z,52.25
2023-01-03T10:08:25.832Z,52.70
2023-01-03T10:11:12.471Z,52.51
2023-01-03T10:14:00.463Z,53.29
2023-01-03T10:16:56.497Z,52.81
2023-01-03T10:19:32.084Z,52.87
2023-01-03T10:22:14.306Z,52.77
2023-01-03T10:25:01.581Z,52.74
2023-01-03T10:27:33.463Z,52.77
2023-01-03T10:30:07.031Z,52.41
2023-01-03T10:32:44.572Z,52.57
2023-01-03T10:35:17.696Z,52.66
2023-01-03T10:37:45.515Z,52.16
2023-01-03T10:40:14.535Z,51.75
2023-01-03T10:42:42.775Z,51.77
2023-01-03T10:45:19.207Z,51.66
2023-01-03T10:47:58.602Z,51.69
2023-01-03T10:50:25.820Z,51.67
2023-01-03T10:53:04.510Z,51.93
2023-01-03T10:55:35.161Z,51.58
2023-01-03T10:58:04.616Z,51.47
2023-01-03T11:00:31.689Z,51.22
2023-01-03T11:03:10.148Z,51.29
2023-01-03T11:05:38.446Z,51.23
2023-01-03T11:08:13.763Z,51.44
2023-01-03T11:10:56.110Z,51.32
2023-01-03T11:13:40.004Z,51.10
2023-01-03T11:16:16.389Z,50.88
2023-01-03T11:18:44.936Z,50.69
2023-01-03T11:21:14.802Z,50.98
2023-01-03T11:23:53.161Z,50.06
2023-01-03T11:26:38.215Z,50.86
2023-01-03T11:29:24.380Z,50.73
2023-01-03T11:32:22.058Z,50.77
2023-01-03T11:35:23.436Z,50.41
2023-01-03T11:37:51.491Z,50.38
2023-01-03T11:40:27.200Z,50.16
2023-01-03T11:43:00.698Z,50.43
2023-01-03T11:45:56.397Z,50.42
2023-01-03T11:48:28.958Z,50.37
2023-01-03T11:51:02.050Z,50.46
2023-01-03T11:53:40.201Z,50.27
2023-01-03T11:56:42.069Z,50.42
2023-01-03T11:59:41.655Z,50.37
2023-01-03T12:02:51.372Z,50.29
2023-01-03T12:05:21.553Z,50.60
2023-01-03T12:08:17.031Z,50.31
2023-01-03T12:10:59.364Z,50.54
2023-01-03T12:14:08.345Z,50.32
2023-01-03T12:17:00.228Z,50.33
2023-01-03T12:19:43.832Z,50.56
2023-01-03T12:22:34.333Z,50.28
2023-01-03T12:25:28.728Z,50.22
2023-01-03T12:28:11.273Z,50.31
2023-01-03T12:30:44.918Z,50.33
2023-01-03T12:33:33.395Z,50.06
2023-01-03T12:36:00.456Z,50.25
2023-01-03T12:38:37.924Z,50.23
2023-01-03T12:41:27.191Z,50.32
2023-01-03T12:44:04.287Z,50.43
2023-01-03T12:46:41.774Z,50.09
2023-01-03T12:49:24.189Z,50.10
2023-01-03T12:51:51.148Z,50.35
2023-01-03T12:54:43.380Z,49.07
2023-01-03T12:57:39.653Z,49.72
2023-01-03T13:00:22.227Z,50.32
2023-01-03T13:03:05.446Z,50.40
2023-01-03T13:05:53.328Z,50.03
2023-01-03T13:08:52.107Z,50.38
2023-01-03T13:11:27.794Z,49.22
2023-01-03T13:13:57.866Z,49.71
2023-01-03T13:16:37.009Z,50.29
2023-01-03T13:19:22.284Z,50.27
2023-01-03T13:21:56.140Z,50.32
2023-01-03T13:24:44.975Z,50.56
2023-01-03T13:27:18.127Z,50.68
2023-01-03T13:29:51.166Z,50.50
2023-01-03T13:32:24.243Z,50.59
2023-01-03T13:34:54.306Z,51.09
2023-01-03T13:37:23.351Z,50.79
2023-01-03T13:40:11.331Z,49.96
2023-01-03T13:42:40.149Z,49.89
2023-01-03T13:45:30.015Z,50.75
2023-01-03T13:47:57.807Z,50.96
2023-01-03T13:50:34.344Z,51.01
2023-01-03T13:53:21.664Z,50.74
2023-01-03T13:56:17.707Z,50.70
2023-01-03T13:58:54.054Z,50.84
2023-01-03T14:01:36.233Z,51.21
2023-01-03T14:04:18.175Z,51.49
2023-01-03T14:06:45.294Z,51.66
2023-01-03T14:09:30.863Z,51.70
2023-01-03T14:12:22.558Z,51.42
2023-01-03T14:14:59.539Z,51.39
2023-01-03T14:17:36.620Z,51.50
2023-01-03T14:20:09.779Z,51.57
2023-01-03T14:22:48.720Z,51.24
2023-01-03T14:25:37.836Z,51.07
2023-01-03T14:28:26.538Z,51.44
2023-01-03T14:30:56.769Z,51.36
2023-01-03T14:33:26.099Z,51.21
2023-01-03T14:36:17.062Z,51.47
2023-01-03T14:38:59.909Z,51.36
2023-01-03T14:41:38.405Z,51.48
2023-01-03T14:44:16.675Z,51.02
2023-01-03T14:46:56.107Z,51.28
2023-01-03T14:49:39.774Z,51.36
2023-01-03T14:52:13.540Z,51.51
2023-01-03T14:54:44.886Z,51.32
2023-01-03T14:57:20.763Z,51.31
2023-01-03T14:59:49.003Z,51.31
2023-01-03T15:02:16.648Z,51.15
2023-01-03T15:04:46.119Z,51.05
2023-01-03T15:07:33.836Z,51.14
2023-01-03T15:10:12.688Z,50.77
2023-01-03T15:12:44.235Z,50.89
2023-01-03T15:15:39.298Z,50.99
2023-01-03T15:18:09.650Z,51.29
2023-01-03T15:20:40.548Z,51.28
2023-01-03T15:23:08.663Z,51.16
2023-01-03T15:25:39.355Z,51.08
2023-01-03T15:28:52.847Z,51.54
2023-01-03T15:31:28.691Z,51.13
2023-01-03T15:34:23.756Z,51.19
2023-01-03T15:37:17.245Z,50.61
2023-01-03T15:39:49.983Z,48.92
2023-01-03T15:42:47.837Z,48.81
2023-01-03T15:45:22.862Z,49.41
2023-01-03T15:47:53.119Z,50.38
2023-01-03T15:50:20.783Z,50.07
2023-01-03T15:52:49.192Z,50.32
2023-01-03T15:55:18.285Z,50.61
2023-01-03T15:57:51.482Z,50.64
2023-01-03T16:00:21.882Z,50.67
2023-01-03T16:02:50.097Z,50.73
2023-01-03T16:05:22.588Z,50.79
2023-01-03T16:07:51.615Z,50.58
2023-01-03T16:10:18.756Z,49.95
2023-01-03T16:12:45.869Z,50.05
2023-01-03T16:15:22.714Z,49.94
2023-01-03T16:17:51.379Z,50.01
2023-01-03T16:20:20.325Z,50.14
2023-01-03T16:23:00.482Z,49.91
2023-01-03T16:25:29.474Z,49.85
2023-01-03T16:27:56.554Z,50.13
2023-01-03T16:30:24.865Z,49.96
2023-01-03T16:32:52.121Z,50.07
2023-01-03T16:35:21.007Z,49.93
2023-01-03T16:37:48.516Z,49.72
2023-01-03T16:40:18.564Z,49.48
2023-01-03T16:42:45.704Z,50.26
2023-01-03T16:45:13.878Z,49.99
2023-01-03T16:47:43.229Z,50.05
2023-01-03T16:50:19.732Z,50.16
2023-01-03T16:52:56.098Z,50.30
2023-01-03T16:55:35.962Z,50.24
2023-01-03T16:58:03.047Z,50.42
2023-01-03T17:00:34.335Z,50.51
2023-01-03T17:03:03.293Z,50.26
2023-01-03T17:05:36.438Z,50.34
2023-01-03T17:08:08.478Z,50.09
2023-01-03T17:10:39.341Z,50.31
2023-01-03T17:13:12.375Z,50.11
2023-01-03T17:15:42.935Z,49.70
2023-01-03T17:18:26.988Z,49.52
2023-01-03T17:21:05.772Z,49.75
2023-01-03T17:23:40.958Z,49.43
2023-01-03T17:26:15.576Z,49.56
2023-01-03T17:28:45.090Z,49.90
2023-01-03T17:31:25.737Z,49.97
2023-01-03T17:33:55.628Z,50.00
2023-01-03T17:36:33.068Z,49.88
2023-01-03T17:39:04.586Z,49.74
2023-01-03T17:41:55.273Z,49.65
2023-01-03T17:44:23.234Z,49.83
2023-01-03T17:47:11.811Z,50.05
2023-01-03T17:49:39.797Z,49.68
2023-01-03T17:52:10.029Z,49.84
2023-01-03T17:54:40.061Z,49.90
2023-01-03T17:57:11.421Z,49.80
2023-01-03T17:59:38.656Z,49.97
2023-01-03T18:02:26.320Z,50.07
2023-01-03T18:07:41.292Z,50.60
2023-01-03T18:10:18.913Z,50.82
2023-01-03T18:12:46.013Z,50.87
2023-01-03T18:15:22.025Z,50.69
2023-01-03T18:17:51.201Z,50.42
2023-01-03T18:20:19.680Z,50.44
2023-01-03T18:22:48.120Z,50.45
2023-01-03T18:25:23.834Z,50.64
2023-01-03T18:27:55.746Z,50.78
2023-01-03T18:30:23.587Z,50.86
2023-01-03T18:32:50.900Z,50.59
2023-01-03T18:35:28.456Z,50.57
2023-01-03T18:37:58.059Z,50.77
2023-01-03T18:40:30.790Z,50.62
2023-01-03T18:43:13.263Z,50.43
2023-01-03T18:45:42.315Z,50.22
2023-01-03T18:48:18.553Z,50.50
2023-01-03T18:50:53.679Z,50.84
2023-01-03T18:53:28.987Z,50.87
2023-01-03T18:55:56.831Z,50.79
2023-01-03T18:58:33.137Z,50.86
2023-01-03T19:01:01.123Z,51.13
2023-01-03T19:03:30.812Z,51.17
2023-01-03T19:06:00.043Z,51.03
2023-01-03T19:08:33.433Z,51.12
2023-01-03T19:11:08.329Z,50.96
2023-01-03T19:13:51.175Z,50.75
2023-01-03T19:16:31.428Z,50.59
2023-01-03T19:19:01.102Z,50.28
2023-01-03T19:21:37.149Z,50.66
2023-01-03T19:24:37.955Z,50.39
2023-01-03T19:27:21.337Z,50.42
2023-01-03T19:29:49.581Z,50.49
2023-01-03T19:32:24.756Z,50.45
2023-01-03T19:34:53.893Z,50.27
2023-01-03T19:37:21.533Z,50.30
2023-01-03T19:39:51.165Z,50.22
2023-01-03T19:42:40.255Z,50.25
2023-01-03T19:45:29.529Z,50.12
2023-01-03T19:48:01.366Z,50.42
2023-01-03T19:50:34.748Z,50.25
2023-01-03T19:53:04.743Z,50.14
2023-01-03T19:55:38.149Z,50.25
2023-01-03T19:58:18.421Z,50.10
2023-01-03T20:00:48.433Z,50.23
2023-01-03T20:03:34.260Z,50.13
2023-01-03T20:06:02.185Z,50.29
2023-01-03T20:08:30.029Z,50.17
2023-01-03T20:11:01.174Z,50.09
2023-01-03T20:13:29.105Z,49.92
2023-01-03T20:16:00.907Z,49.75
2023-01-03T20:18:40.429Z,49.68
2023-01-03T20:21:21.936Z,49.98
2023-01-03T20:23:54.836Z,50.17
2023-01-03T20:26:29.748Z,50.06
2023-01-03T20:28:58.961Z,50.12
2023-01-03T20:31:27.477Z,50.02
2023-01-03T20:33:54.829Z,49.97
2023-01-03T20:36:34.763Z,49.99
2023-01-03T20:39:02.445Z,50.04
2023-01-03T20:41:38.613Z,49.89
2023-01-03T20:44:09.229Z,49.99
2023-01-03T20:46:39.625Z,50.00
2023-01-03T20:49:15.235Z,50.16
2023-01-03T20:51:43.929Z,49.84
2023-01-03T20:54:13.872Z,49.62
2023-01-03T20:56:42.583Z,49.66
2023-01-03T20:59:18.889Z,49.79
2023-01-03T21:01:49.152Z,49.90
2023-01-03T21:04:17.547Z,49.74
2023-01-03T21:06:46.811Z,49.27
2023-01-03T21:09:15.666Z,49.26
2023-01-03T21:11:48.989Z,48.95
2023-01-03T21:14:19.190Z,49.55
2023-01-03T21:16:49.422Z,49.42
2023-01-03T21:19:24.153Z,49.09
2023-01-03T21:21:55.008Z,49.05
2023-01-03T21:24:25.779Z,49.16
2023-01-03T21:26:54.943Z,49.07
2023-01-03T21:29:24.048Z,49.42
2023-01-03T21:31:52.908Z,49.38
2023-01-03T21:34:23.396Z,49.19
2023-01-03T21:36:51.330Z,49.26
2023-01-03T21:39:19.575Z,49.44
2023-01-03T21:42:06.821Z,49.37
2023-01-03T21:44:36.486Z,49.55
2023-01-03T21:47:03.753Z,49.55
2023-01-03T21:49:32.046Z,49.54
2023-01-03T21:51:59.617Z,49.64
2023-01-03T21:54:27.449Z,49.74
2023-01-03T21:56:55.100Z,49.85
2023-01-03T21:59:22.612Z,49.74
2023-01-03T22:02:08.653Z,49.91
2023-01-03T22:04:38.090Z,49.99
2023-01-03T22:07:06.432Z,50.22
2023-01-03T22:09:52.234Z,50.10
2023-01-03T22:12:19.842Z,50.31
2023-01-03T22:14:48.024Z,50.19
2023-01-03T22:17:15.955Z,50.36
2023-01-03T22:19:43.016Z,50.49
2023-01-03T22:22:10.917Z,50.46
2023-01-03T22:24:38.252Z,50.50
2023-01-03T22:27:05.781Z,50.58
2023-01-03T22:29:33.431Z,50.89
2023-01-03T22:32:00.694Z,50.68
2023-01-03T22:34:28.434Z,50.77
2023-01-03T22:36:55.696Z,50.92
2023-01-03T22:39:23.426Z,51.03
2023-01-03T22:41:50.724Z,51.05
2023-01-03T22:44:17.979Z,51.22
2023-01-03T22:46:45.650Z,51.09
2023-01-03T22:49:12.889Z,51.23
2023-01-03T22:51:40.428Z,51.26
2023-01-03T22:54:10.810Z,51.10
2023-01-03T22:56:38.932Z,51.31
2023-01-03T22:59:06.304Z,51.48
2023-01-03T23:01:33.944Z,51.40
2023-01-03T23:04:02.054Z,51.34
2023-01-03T23:06:33.074Z,51.52
2023-01-03T23:09:03.972Z,51.59
2023-01-03T23:11:51.787Z,51.48
2023-01-03T23:14:23.571Z,51.86
2023-01-03T23:16:52.980Z,51.74
2023-01-03T23:19:23.379Z,51.75
2023-01-03T23:21:52.475Z,51.82
2023-01-03T23:24:23.165Z,51.72
2023-01-03T23:26:52.891Z,51.73
2023-01-03T23:29:20.321Z,52.00
2023-01-03T23:31:47.645Z,52.02
2023-01-03T23:34:15.045Z,52.06
2023-01-03T23:36:46.024Z,52.03
2023-01-03T23:39:16.109Z,52.10
2023-01-03T23:41:43.746Z,52.23
2023-01-03T23:44:11.453Z,52.32
2023-01-03T23:46:39.143Z,51.92
2023-01-03T23:49:06.613Z,52.35
2023-01-03T23:51:33.671Z,52.33
2023-01-03T23:54:00.774Z,52.37
2023-01-03T23:56:27.953Z,52.19
2023-01-03T23:58:55.040Z,52.30
